Terminal Aerodrome Forecast
Issued by NWS Quad Cities IA IL

Home | Current Version | Previous Version | Text Only | Print | Product List | Glossary Off
Versions: 1 2 3 4 5 6 7 8 9 10 11 12 13 14 15 16 17 18 19 20

000
FTUS43 KDVN 300520
TAFDBQ
TAF
KDBQ 300520Z 3006/3106 22007KT P6SM VCSH FEW025 SCT040
      TEMPO 3006/3009 4SM -SHRA BKN025
     FM301200 02010G18KT 6SM BR VCSH OVC012
     FM301900 04013G24KT P6SM BKN025 OVC035
     FM310200 02012KT P6SM SCT030=

USA.gov is the U.S. government's official web portal to all federal, state and local government web resources and services.